Terminal Aerodrome Forecast
Issued by NWS

Home | Current Version | Previous Version | Text Only | Print | Product List | Glossary Off
Versions: 1 2 3 4 5 6 7 8 9 10 11 12

000
FTUS42 KMHX 062325
TAFISO
TAF
KISO 062325Z 0700/0724 06005KT P6SM SCT100 BKN250
     FM071400 05010G18KT P6SM SCT040 BKN100
     FM071900 05011G20KT 6SM -SHRA SCT020 BKN050
      AMD LTD TO CLD VIS AND WIND=

USA.gov is the U.S. government's official web portal to all federal, state and local government web resources and services.